Algoma, WV

4:36 PM EDT on September 04, 2015 (GMT -0400)
185 Beeson rd | | Change Station
CLOSE
Current Station
Personal Weather Station
Location: Lashmeet, WV
Elevation: 2513 ft
Nearby Weather Stations

Elev 2513 ft 37.42 °N, 81.20 °W | Updated 9 seconds ago

Partly Cloudy
Partly Cloudy
73.4 °F
Feels Like 75 °F
N
0.0
Wind Variable Wind from North
Gusts 0.0 mph

Today
High -- | Low -- °F
--% Chance of Precip.
Yesterday
High -- | Low -- °F
Precip. -- in
6:58 AM 7:50 PM
Waning Gibbous, 56% visible
Pressure 30.14 in
Visibility 10.0 miles
Clouds Scattered Clouds 4100 ft
Mostly Cloudy 5000 ft
Heat Index 75 °F
Dew Point 64 °F
Humidity 74%
Rainfall 0.70 in
Snow Depth Not available.
UV 3 out of 12
Pollen 9.50 out of 12
Air Quality Not available.
Flu Activity Not available.
SPECI KBLF 042011Z AUTO 33007KT 10SM TS SCT041 BKN050 27/17 A3014 RMK AO2 LTG DSNT N AND W TSB05 T02670172
Pressure 30.14 in
Visibility 10.0 miles
Clouds Scattered Clouds 4100 ft
Mostly Cloudy 5000 ft
Heat Index 75 °F
Dew Point 64 °F
Humidity 74%
Rainfall 0.70 in
Snow Depth Not available.
UV 3 out of 12
Pollen 9.50 out of 12
Air Quality Not available.
Flu Activity Not available.
SPECI KBLF 042011Z AUTO 33007KT 10SM TS SCT041 BKN050 27/17 A3014 RMK AO2 LTG DSNT N AND W TSB05 T02670172

10-Day Weather Forecast

×

Almanac

Astronomy

Sep. 04, 2015 Rise Set
Actual Time
Civil Twilight
Nautical Twilight
Astronomical Twilight
Moon
Length of Visible Light
Length of Day
Tomorrow will be .
, % of the Moon is Illuminated

Today's Extremes

State Highs State Lows

Community

WunderPhotos

Upload Photos

1,852,283 photos uploaded!

WunderBlogs® & News

Nearby

Air Quality

  Air Quality AQ Index Pollutant
Not available.

Snow Depth

Station Depth Elevation

Earthquake Activity

City Distance Mag. Time & Date
Minimum magnitude displayed is 2.5.

Coastal Water Temperatures

Place Temperature

Stations

Nearby Weather Stations

Station Location Temp. Windchill Dew Point Humidity Wind Precip. Elev Updated Type